createdAt,value
2022-10-05T00:00:55.858Z,13.60
2022-10-05T00:06:09.809Z,13.62
2022-10-05T00:11:15.027Z,13.61
2022-10-05T00:16:19.880Z,13.59
2022-10-05T00:21:25.075Z,13.58
2022-10-05T00:26:32.520Z,13.61
2022-10-05T00:31:36.628Z,13.58
2022-10-05T00:36:40.815Z,13.59
2022-10-05T00:41:56.026Z,13.58
2022-10-05T00:47:07.619Z,13.57
2022-10-05T00:52:19.845Z,13.59
2022-10-05T00:57:29.147Z,13.59
2022-10-05T01:02:37.291Z,13.55
2022-10-05T01:07:45.437Z,13.59
2022-10-05T01:12:54.675Z,13.57
2022-10-05T01:18:02.288Z,13.56
2022-10-05T01:23:25.671Z,13.57
2022-10-05T01:28:32.031Z,13.55
2022-10-05T01:33:41.718Z,13.55
2022-10-05T01:38:52.508Z,13.56
2022-10-05T01:43:58.582Z,13.55
2022-10-05T01:49:08.818Z,13.56
2022-10-05T01:54:19.030Z,13.54
2022-10-05T01:59:29.501Z,13.54
2022-10-05T02:10:01.587Z,13.56
2022-10-05T02:15:08.708Z,13.53
2022-10-05T02:20:15.397Z,13.53
2022-10-05T02:25:20.787Z,13.51
2022-10-05T02:30:24.497Z,13.52
2022-10-05T02:35:27.987Z,13.52
2022-10-05T02:40:38.469Z,13.52
2022-10-05T02:45:47.229Z,13.51
2022-10-05T02:50:53.767Z,13.51
2022-10-05T02:56:01.415Z,13.52
2022-10-05T03:01:07.535Z,13.50
2022-10-05T03:06:15.967Z,13.51
2022-10-05T03:11:25.737Z,13.52
2022-10-05T03:16:35.103Z,13.50
2022-10-05T03:21:45.808Z,13.51
2022-10-05T03:26:53.721Z,13.49
2022-10-05T03:32:00.805Z,13.48
2022-10-05T03:37:08.235Z,13.49
2022-10-05T03:42:16.657Z,13.49
2022-10-05T03:47:25.125Z,13.47
2022-10-05T03:52:32.525Z,13.49
2022-10-05T03:57:37.177Z,13.48
2022-10-05T04:02:42.902Z,13.48
2022-10-05T04:07:50.630Z,13.46
2022-10-05T04:12:56.899Z,13.48
2022-10-05T04:18:03.767Z,13.48
2022-10-05T04:23:15.162Z,13.48
2022-10-05T04:28:29.620Z,13.48
2022-10-05T04:33:35.727Z,13.48
2022-10-05T04:38:44.468Z,13.46
2022-10-05T04:43:54.127Z,13.44
2022-10-05T04:49:09.993Z,13.45
2022-10-05T04:54:20.011Z,13.45
2022-10-05T04:59:36.818Z,13.46
2022-10-05T05:04:51.791Z,13.46
2022-10-05T05:10:07.599Z,13.46
2022-10-05T05:15:27.498Z,13.43
2022-10-05T05:20:35.008Z,13.45
2022-10-05T05:25:43.908Z,13.45
2022-10-05T05:30:50.027Z,13.46
2022-10-05T05:36:07.877Z,13.44
2022-10-05T05:41:13.036Z,13.48
2022-10-05T05:46:30.077Z,13.46
2022-10-05T05:51:50.376Z,13.49
2022-10-05T05:56:57.778Z,13.52
2022-10-05T06:02:05.881Z,13.56
2022-10-05T06:07:15.872Z,13.61
2022-10-05T06:12:21.532Z,13.62
2022-10-05T06:17:29.128Z,13.62
2022-10-05T06:22:35.041Z,13.63
2022-10-05T06:27:39.124Z,13.66
2022-10-05T06:32:50.948Z,13.70
2022-10-05T06:38:00.550Z,13.74
2022-10-05T06:43:10.778Z,13.74
2022-10-05T06:48:20.437Z,13.76
2022-10-05T06:53:29.207Z,13.74
2022-10-05T06:58:41.901Z,13.74
2022-10-05T07:03:53.612Z,13.75
2022-10-05T07:09:06.238Z,13.78
2022-10-05T07:14:14.427Z,13.78
2022-10-05T07:19:22.782Z,13.77
2022-10-05T07:24:30.828Z,13.76
2022-10-05T07:29:38.207Z,13.75
2022-10-05T07:34:48.278Z,13.75
2022-10-05T07:40:00.618Z,13.75
2022-10-05T07:45:08.934Z,13.75
2022-10-05T07:50:17.915Z,13.74
2022-10-05T07:55:23.389Z,13.74
2022-10-05T08:00:30.763Z,13.73
2022-10-05T08:05:36.639Z,13.74
2022-10-05T08:10:42.941Z,13.74
2022-10-05T08:15:48.194Z,13.74
2022-10-05T08:20:53.675Z,13.76
2022-10-05T08:26:06.903Z,13.75
2022-10-05T08:31:14.790Z,13.74
2022-10-05T08:36:21.553Z,13.77
2022-10-05T08:41:48.601Z,13.75
2022-10-05T08:47:05.108Z,13.76
2022-10-05T08:52:23.313Z,13.78
2022-10-05T08:57:41.447Z,13.79
2022-10-05T09:02:59.956Z,13.78
2022-10-05T09:08:20.621Z,13.79
2022-10-05T09:13:38.287Z,13.79
2022-10-05T09:18:59.598Z,13.79
2022-10-05T09:24:11.020Z,13.81
2022-10-05T09:29:27.537Z,13.84
2022-10-05T09:34:49.459Z,13.86
2022-10-05T09:40:06.817Z,13.88
2022-10-05T09:45:28.430Z,13.90
2022-10-05T09:50:45.788Z,13.90
2022-10-05T09:56:09.390Z,13.97
2022-10-05T10:01:34.296Z,14.01
2022-10-05T10:06:52.041Z,14.01
2022-10-05T10:12:04.357Z,14.05
2022-10-05T10:17:16.509Z,14.04
2022-10-05T10:22:42.814Z,14.06
2022-10-05T10:27:58.068Z,14.03
2022-10-05T10:33:21.712Z,14.01
2022-10-05T10:38:40.081Z,13.99
2022-10-05T10:44:02.573Z,14.01
2022-10-05T10:49:15.475Z,13.99
2022-10-05T10:54:36.712Z,14.00
2022-10-05T10:59:58.274Z,13.97
2022-10-05T11:05:15.772Z,13.97
2022-10-05T11:10:29.631Z,13.99
2022-10-05T11:15:51.647Z,13.98
2022-10-05T11:21:16.798Z,13.98
2022-10-05T11:26:34.768Z,13.99
2022-10-05T11:31:50.610Z,13.97
2022-10-05T11:37:20.391Z,13.96
2022-10-05T11:42:55.648Z,13.96
2022-10-05T11:48:20.158Z,13.96
2022-10-05T11:53:25.617Z,13.98
2022-10-05T11:58:32.278Z,13.94
2022-10-05T12:03:42.603Z,13.95
2022-10-05T12:08:55.408Z,13.92
2022-10-05T12:14:01.477Z,13.95
2022-10-05T12:19:10.122Z,13.94
2022-10-05T12:24:15.597Z,13.94
2022-10-05T12:29:24.211Z,13.94
2022-10-05T12:34:35.733Z,13.94
2022-10-05T12:39:43.852Z,13.94
2022-10-05T12:44:58.108Z,13.94
2022-10-05T12:50:13.263Z,13.93
2022-10-05T12:55:21.388Z,13.93
2022-10-05T13:00:25.238Z,13.93
2022-10-05T13:05:32.480Z,13.90
2022-10-05T13:10:38.367Z,13.91
2022-10-05T13:15:48.686Z,13.93
2022-10-05T13:20:55.769Z,13.89
2022-10-05T13:26:03.599Z,13.88
2022-10-05T13:31:12.384Z,13.90
2022-10-05T13:36:19.120Z,13.90
2022-10-05T13:41:28.691Z,13.89
2022-10-05T13:46:37.030Z,13.88
2022-10-05T13:51:43.509Z,13.88
2022-10-05T13:56:50.802Z,13.87
2022-10-05T14:01:58.284Z,13.90
2022-10-05T14:07:14.363Z,13.87
2022-10-05T14:12:21.217Z,13.90
2022-10-05T14:17:38.509Z,13.88
2022-10-05T14:22:42.743Z,13.88
2022-10-05T14:27:50.905Z,13.87
2022-10-05T14:32:56.111Z,13.89
2022-10-05T14:38:01.868Z,13.86
2022-10-05T14:43:18.608Z,13.87
2022-10-05T14:48:22.563Z,13.88
2022-10-05T14:53:26.852Z,13.86
2022-10-05T14:58:38.731Z,13.86
2022-10-05T15:03:46.850Z,13.86
2022-10-05T15:08:56.078Z,13.85
2022-10-05T15:14:00.348Z,13.86
2022-10-05T15:19:08.011Z,13.86
2022-10-05T15:24:16.779Z,13.86
2022-10-05T15:29:36.444Z,13.87
2022-10-05T15:34:44.987Z,13.87
2022-10-05T15:39:52.392Z,13.86
2022-10-05T15:45:02.815Z,13.85
2022-10-05T15:50:14.468Z,13.84
2022-10-05T15:55:25.387Z,13.83
2022-10-05T16:00:30.497Z,13.85
2022-10-05T16:05:57.176Z,13.83
2022-10-05T16:11:01.357Z,13.82
2022-10-05T16:16:12.257Z,13.83
2022-10-05T16:21:25.128Z,13.83
2022-10-05T16:26:33.450Z,13.82
2022-10-05T16:31:46.489Z,13.82
2022-10-05T16:36:57.578Z,13.84
2022-10-05T16:42:06.108Z,13.83
2022-10-05T16:47:27.549Z,13.82
2022-10-05T16:52:32.527Z,13.82
2022-10-05T16:57:38.361Z,13.83
2022-10-05T17:02:47.364Z,13.82
2022-10-05T17:07:57.677Z,13.80
2022-10-05T17:13:06.412Z,13.79
2022-10-05T17:18:28.047Z,13.79
2022-10-05T17:23:42.530Z,13.80
2022-10-05T17:28:59.258Z,13.80
2022-10-05T17:34:14.238Z,13.82
2022-10-05T17:39:18.878Z,13.80
2022-10-05T17:44:25.880Z,13.80
2022-10-05T17:50:12.499Z,13.81
2022-10-05T17:55:35.058Z,13.84
2022-10-05T18:00:55.909Z,13.80
2022-10-05T18:06:15.878Z,13.82
2022-10-05T18:11:35.057Z,13.82
2022-10-05T18:16:57.982Z,13.83
2022-10-05T18:22:03.576Z,13.79
2022-10-05T18:27:19.191Z,13.77
2022-10-05T18:32:25.257Z,13.82
2022-10-05T18:37:41.888Z,13.80
2022-10-05T18:42:49.997Z,13.83
2022-10-05T18:48:03.257Z,13.82
2022-10-05T18:53:15.617Z,13.80
2022-10-05T18:58:25.293Z,13.78
2022-10-05T19:03:32.838Z,13.80
2022-10-05T19:08:39.532Z,13.81
2022-10-05T19:13:47.297Z,13.78
2022-10-05T19:18:54.416Z,13.78
2022-10-05T19:24:12.812Z,13.79
2022-10-05T19:29:34.141Z,13.78
2022-10-05T19:34:47.347Z,13.79
2022-10-05T19:39:53.969Z,13.79
2022-10-05T19:45:03.622Z,13.78
2022-10-05T19:50:20.228Z,13.78
2022-10-05T19:55:26.295Z,13.81
2022-10-05T20:00:30.918Z,13.78
2022-10-05T20:05:34.748Z,13.77
2022-10-05T20:10:38.798Z,13.80
2022-10-05T20:16:20.520Z,13.78
2022-10-05T20:21:43.690Z,13.81
2022-10-05T20:27:05.562Z,13.81
2022-10-05T20:32:11.798Z,13.79
2022-10-05T20:37:16.296Z,13.80
2022-10-05T20:42:20.528Z,13.77
2022-10-05T20:47:24.199Z,13.79
2022-10-05T20:52:27.724Z,13.78
2022-10-05T20:57:31.227Z,13.79
2022-10-05T21:02:34.757Z,13.79
2022-10-05T21:07:38.578Z,13.79
2022-10-05T21:12:42.192Z,13.77
2022-10-05T21:17:45.711Z,13.79
2022-10-05T21:22:49.527Z,13.79
2022-10-05T21:27:53.749Z,13.77
2022-10-05T21:32:57.269Z,13.80
2022-10-05T21:38:00.789Z,13.78
2022-10-05T21:43:04.505Z,13.78
2022-10-05T21:48:08.528Z,13.78
2022-10-05T21:53:13.698Z,13.78
2022-10-05T21:58:17.948Z,13.77
2022-10-05T22:03:22.222Z,13.78
2022-10-05T22:08:26.888Z,13.77
2022-10-05T22:13:40.032Z,13.76
2022-10-05T22:18:44.057Z,13.79
2022-10-05T22:23:48.571Z,13.79
2022-10-05T22:28:55.239Z,13.78
2022-10-05T22:33:59.328Z,13.76
2022-10-05T22:39:03.783Z,13.78
2022-10-05T22:44:08.338Z,13.77
2022-10-05T22:49:12.478Z,13.78
2022-10-05T22:54:16.858Z,13.76
2022-10-05T22:59:21.038Z,13.78
2022-10-05T23:04:25.338Z,13.78
2022-10-05T23:09:29.348Z,13.77
2022-10-05T23:14:33.206Z,13.77
2022-10-05T23:19:37.405Z,13.77
2022-10-05T23:24:41.476Z,13.77
2022-10-05T23:29:45.800Z,13.77
2022-10-05T23:34:50.002Z,13.77
2022-10-05T23:39:54.428Z,13.77
2022-10-05T23:44:58.827Z,13.78
2022-10-05T23:50:02.798Z,13.76
2022-10-05T23:55:07.758Z,13.78
